Time;durP1;ratioP1;P1;durP2;ratioP2;P2;SDS_P1;SDS_P2;PMS_P1;PMS_P2;Temp;Humidity;BMP_temperature;BMP_pressure;BME280_temperature;BME280_humidity;BME280_pressure;Samples;Min_cycle;Max_cycle;Signal;HPM_P1;HPM_P2
2022/04/23 00:02:05;;;;;;;38.13;23.33;;;20.90;59.50;;;;;;5035242;28;20096;-68
2022/04/23 00:04:31;;;;;;;37.03;23.17;;;21.00;59.50;;;;;;5033697;28;20370;-68
2022/04/23 00:06:57;;;;;;;40.60;23.80;;;21.00;59.50;;;;;;5035183;28;20029;-68
2022/04/23 00:09:23;;;;;;;41.13;24.73;;;21.00;59.40;;;;;;5033706;28;20028;-68
2022/04/23 00:11:48;;;;;;;36.45;23.58;;;21.00;59.40;;;;;;5033530;28;20101;-68
2022/04/23 00:14:14;;;;;;;39.13;24.38;;;21.00;59.40;;;;;;5032726;28;20022;-68
2022/04/23 00:16:40;;;;;;;38.28;23.65;;;21.00;59.30;;;;;;5034921;28;20025;-68
2022/04/23 00:19:05;;;;;;;36.22;22.90;;;21.00;59.40;;;;;;5026049;28;20442;-68
2022/04/23 00:21:31;;;;;;;35.83;22.85;;;21.00;59.30;;;;;;5032600;28;20488;-68
2022/04/23 00:23:56;;;;;;;35.38;22.38;;;21.00;59.30;;;;;;5034552;28;20033;-68
2022/04/23 00:26:22;;;;;;;33.33;22.63;;;21.00;59.30;;;;;;5034631;28;20029;-68
2022/04/23 00:28:48;;;;;;;34.78;22.70;;;21.00;59.20;;;;;;5034806;28;20026;-69
2022/04/23 00:31:16;;;;;;;32.38;21.17;;;21.10;59.20;;;;;;5034529;28;20029;-69
2022/04/23 00:33:42;;;;;;;35.83;21.58;;;21.10;59.20;;;;;;5034365;28;20028;-69
2022/04/23 00:36:10;;;;;;;35.90;21.65;;;21.10;59.20;;;;;;5034556;28;20404;-69
2022/04/23 00:38:38;;;;;;;32.75;20.70;;;21.10;59.20;;;;;;5034114;28;20027;-69
2022/04/23 00:41:05;;;;;;;36.63;20.88;;;21.10;59.10;;;;;;5033353;28;20018;-69
2022/04/23 00:43:33;;;;;;;33.40;21.42;;;21.10;59.10;;;;;;5033165;28;20018;-69
2022/04/23 00:45:59;;;;;;;29.48;20.10;;;21.10;59.00;;;;;;5022751;28;20075;-68
2022/04/23 00:48:26;;;;;;;30.08;19.73;;;21.10;59.30;;;;;;5033905;28;20018;-67
2022/04/23 00:50:53;;;;;;;31.63;19.85;;;21.20;59.40;;;;;;5055032;28;20040;-68
2022/04/23 00:53:19;;;;;;;25.25;17.92;;;21.20;59.50;;;;;;5048149;28;20101;-68
2022/04/23 00:55:46;;;;;;;29.42;18.92;;;21.30;59.50;;;;;;5034449;28;20021;-66
2022/04/23 00:58:11;;;;;;;32.10;18.65;;;21.40;59.40;;;;;;5017449;28;20112;-67
2022/04/23 01:00:40;;;;;;;29.10;18.83;;;21.50;59.50;;;;;;5032998;28;20105;-66
2022/04/23 01:03:07;;;;;;;27.73;17.50;;;21.50;59.50;;;;;;5049772;28;20096;-66
2022/04/23 01:05:34;;;;;;;32.17;19.55;;;21.60;59.50;;;;;;5053936;28;20056;-70
2022/04/23 01:08:04;;;;;;;29.52;18.40;;;21.60;59.40;;;;;;5053157;28;20387;-72
2022/04/23 01:10:30;;;;;;;27.70;18.27;;;21.70;59.50;;;;;;5054538;28;20105;-71
2022/04/23 01:12:55;;;;;;;27.75;18.48;;;21.70;59.40;;;;;;5039481;28;20105;-72
2022/04/23 01:15:21;;;;;;;26.15;18.42;;;21.70;59.30;;;;;;5034749;28;20068;-72
2022/04/23 01:17:49;;;;;;;30.48;18.27;;;21.80;59.40;;;;;;5034070;28;20104;-71
2022/04/23 01:20:15;;;;;;;29.45;18.67;;;21.80;59.20;;;;;;5034012;28;20029;-71
2022/04/23 01:22:44;;;;;;;28.55;18.58;;;21.80;59.10;;;;;;5032370;28;20089;-71
2022/04/23 01:25:12;;;;;;;29.15;18.17;;;21.80;59.00;;;;;;5049494;28;20033;-72
2022/04/23 01:27:38;;;;;;;26.83;17.30;;;21.80;58.90;;;;;;5048770;28;20110;-71
2022/04/23 01:30:04;;;;;;;27.10;17.30;;;21.80;58.90;;;;;;5031385;28;20369;-70
2022/04/23 01:32:30;;;;;;;33.05;19.00;;;21.80;58.90;;;;;;5031798;28;20488;-70
2022/04/23 01:34:56;;;;;;;29.13;17.73;;;21.80;58.90;;;;;;5032636;28;20037;-70
2022/04/23 01:37:21;;;;;;;28.20;16.88;;;21.70;58.80;;;;;;5031896;28;20025;-70
2022/04/23 01:39:47;;;;;;;30.17;18.35;;;21.70;58.80;;;;;;5032803;28;20060;-70
2022/04/23 01:42:13;;;;;;;28.58;18.17;;;21.70;58.80;;;;;;5031838;28;20108;-70
2022/04/23 01:44:39;;;;;;;26.63;18.30;;;21.70;58.80;;;;;;5032819;28;20328;-70
2022/04/23 01:47:05;;;;;;;24.77;16.23;;;21.70;58.70;;;;;;5031295;28;20109;-71
2022/04/23 01:49:30;;;;;;;27.40;17.13;;;21.60;58.70;;;;;;5033092;28;20079;-70
2022/04/23 01:51:56;;;;;;;25.42;17.45;;;21.60;58.70;;;;;;5033136;28;20029;-71
2022/04/23 01:54:22;;;;;;;26.77;18.13;;;21.60;58.70;;;;;;5033259;28;20026;-70
2022/04/23 01:56:48;;;;;;;27.42;17.65;;;21.60;59.70;;;;;;5032919;28;20032;-72
2022/04/23 01:59:13;;;;;;;26.45;16.40;;;21.60;58.70;;;;;;5033017;28;20034;-71
2022/04/23 02:01:41;;;;;;;24.75;16.45;;;21.50;58.60;;;;;;5032918;28;20029;-71
2022/04/23 02:04:07;;;;;;;25.25;16.83;;;21.50;58.60;;;;;;5031878;28;20091;-70
2022/04/23 02:06:36;;;;;;;26.42;17.13;;;21.50;58.70;;;;;;5032771;28;20479;-70
2022/04/23 02:09:02;;;;;;;27.00;17.60;;;21.40;58.60;;;;;;5031922;28;20033;-70
2022/04/23 02:11:28;;;;;;;25.92;17.70;;;21.40;58.60;;;;;;5048630;28;20025;-70
2022/04/23 02:13:54;;;;;;;25.85;16.83;;;21.40;58.70;;;;;;5032611;28;20388;-70
2022/04/23 02:16:20;;;;;;;25.45;16.92;;;21.40;58.70;;;;;;5032907;28;20013;-70
2022/04/23 02:18:46;;;;;;;23.15;15.80;;;21.40;58.70;;;;;;5032469;28;20068;-70
2022/04/23 02:21:11;;;;;;;24.13;16.25;;;21.30;59.60;;;;;;5031461;28;20033;-70
2022/04/23 02:23:37;;;;;;;23.27;15.27;;;21.30;58.70;;;;;;5032641;28;20026;-70
2022/04/23 02:26:05;;;;;;;26.98;17.05;;;21.30;58.70;;;;;;5031281;28;20033;-70
2022/04/23 02:28:31;;;;;;;25.33;16.67;;;21.30;58.70;;;;;;5032758;28;20041;-70
2022/04/23 02:30:57;;;;;;;23.20;15.73;;;21.30;59.70;;;;;;5031287;28;20063;-70
2022/04/23 02:33:23;;;;;;;23.80;16.73;;;21.20;58.70;;;;;;5031303;28;20029;-70
2022/04/23 02:35:50;;;;;;;24.75;16.35;;;21.20;58.80;;;;;;5032268;28;20026;-70
2022/04/23 02:38:17;;;;;;;22.58;15.88;;;21.20;58.80;;;;;;5031954;28;20021;-70
2022/04/23 02:40:43;;;;;;;25.30;16.50;;;21.20;58.80;;;;;;5032088;28;20072;-70
2022/04/23 02:43:11;;;;;;;23.73;15.63;;;21.10;58.70;;;;;;5032499;28;20022;-70
2022/04/23 02:45:37;;;;;;;23.77;15.65;;;21.10;58.70;;;;;;5015032;28;20095;-70
2022/04/23 02:48:03;;;;;;;23.20;15.63;;;21.10;58.80;;;;;;5032261;28;20488;-70
2022/04/23 02:50:31;;;;;;;21.77;14.75;;;21.10;58.80;;;;;;5032219;28;20025;-71
2022/04/23 02:52:57;;;;;;;23.70;15.35;;;21.10;58.80;;;;;;5030920;28;20502;-71
2022/04/23 02:55:24;;;;;;;21.10;15.77;;;21.00;59.80;;;;;;5031077;28;20462;-70
2022/04/23 02:57:49;;;;;;;22.67;14.88;;;21.00;58.90;;;;;;5030954;28;20026;-70
2022/04/23 03:00:15;;;;;;;22.33;14.27;;;21.00;58.90;;;;;;5032243;28;20396;-71
2022/04/23 03:02:41;;;;;;;21.50;14.85;;;21.00;58.90;;;;;;5031758;28;20044;-71
2022/04/23 03:05:11;;;;;;;22.50;15.27;;;21.00;58.90;;;;;;5030728;28;20520;-71
2022/04/23 03:07:37;;;;;;;22.30;15.32;;;21.00;58.90;;;;;;5030918;28;20125;-71
2022/04/23 03:10:06;;;;;;;22.50;15.18;;;20.90;59.50;;;;;;5030944;28;20520;-71
2022/04/23 03:12:32;;;;;;;22.75;15.80;;;20.90;59.00;;;;;;5031010;28;20053;-71
2022/04/23 03:14:58;;;;;;;22.30;14.80;;;20.90;59.10;;;;;;5031769;28;20495;-72
2022/04/23 03:17:23;;;;;;;21.75;14.93;;;20.90;59.00;;;;;;5030809;28;20041;-72
2022/04/23 03:19:49;;;;;;;20.52;13.77;;;20.90;59.10;;;;;;5014057;28;20025;-72
2022/04/23 03:22:15;;;;;;;22.65;14.75;;;20.80;59.10;;;;;;5047451;28;20057;-72
2022/04/23 03:24:41;;;;;;;21.55;14.45;;;20.80;59.10;;;;;;5031740;28;20391;-72
2022/04/23 03:27:07;;;;;;;23.15;14.57;;;20.80;59.10;;;;;;5031927;28;20022;-72
2022/04/23 03:29:33;;;;;;;22.08;14.10;;;20.80;59.20;;;;;;5031940;28;20025;-72
2022/04/23 03:31:59;;;;;;;18.60;13.20;;;20.80;59.20;;;;;;5031531;28;20605;-72
2022/04/23 03:34:24;;;;;;;21.27;13.35;;;20.80;59.20;;;;;;5031763;28;20025;-72
2022/04/23 03:36:50;;;;;;;19.02;13.82;;;20.80;59.20;;;;;;5031696;28;20037;-72
2022/04/23 03:39:16;;;;;;;18.67;13.95;;;20.80;59.30;;;;;;5031819;28;20067;-72
2022/04/23 03:41:41;;;;;;;20.30;13.52;;;20.70;59.30;;;;;;5030530;28;20543;-72
2022/04/23 03:44:07;;;;;;;20.60;13.38;;;20.70;59.20;;;;;;5030509;28;20400;-72
2022/04/23 03:46:33;;;;;;;24.75;14.93;;;20.70;59.30;;;;;;5030233;28;20507;-71
2022/04/23 03:48:58;;;;;;;20.35;14.05;;;20.70;59.30;;;;;;5030563;28;20403;-71
2022/04/23 03:51:24;;;;;;;20.88;14.07;;;20.60;59.30;;;;;;5035483;28;20484;-71
2022/04/23 03:53:50;;;;;;;19.83;13.60;;;20.70;59.40;;;;;;5035136;28;20072;-71
2022/04/23 03:56:16;;;;;;;20.90;13.73;;;20.60;59.40;;;;;;5034212;28;20108;-71
2022/04/23 03:58:41;;;;;;;20.83;13.98;;;20.60;59.40;;;;;;5035354;28;20021;-71
2022/04/23 04:01:07;;;;;;;18.77;13.93;;;20.60;59.40;;;;;;5034898;28;20025;-71
2022/04/23 04:03:33;;;;;;;21.67;13.45;;;20.60;59.50;;;;;;5050568;28;20156;-71
2022/04/23 04:05:59;;;;;;;17.45;12.73;;;20.60;59.50;;;;;;5035093;28;20033;-71
2022/04/23 04:08:25;;;;;;;20.02;13.82;;;20.60;59.50;;;;;;5035102;28;20013;-71
2022/04/23 04:10:51;;;;;;;18.30;13.30;;;20.60;59.60;;;;;;5033774;28;20449;-71
2022/04/23 04:13:16;;;;;;;19.60;13.60;;;20.50;59.60;;;;;;5034914;28;20029;-71
2022/04/23 04:15:45;;;;;;;20.75;13.88;;;20.50;59.60;;;;;;5034618;28;20026;-71
2022/04/23 04:18:11;;;;;;;17.80;12.60;;;20.50;59.60;;;;;;5033810;28;20072;-71
2022/04/23 04:20:39;;;;;;;19.00;13.35;;;20.50;59.60;;;;;;5017277;28;20025;-71
2022/04/23 04:23:05;;;;;;;17.70;12.73;;;20.50;59.70;;;;;;5034706;28;20053;-71
2022/04/23 04:25:31;;;;;;;20.40;12.90;;;20.50;59.70;;;;;;5033578;28;20120;-71
2022/04/23 04:27:58;;;;;;;18.10;13.02;;;20.50;59.70;;;;;;5049875;28;20101;-71
2022/04/23 04:30:24;;;;;;;19.35;12.57;;;20.50;59.80;;;;;;5033428;28;20025;-71
2022/04/23 04:32:49;;;;;;;18.73;12.80;;;20.50;59.80;;;;;;5034489;28;20064;-71
2022/04/23 04:35:15;;;;;;;18.30;12.73;;;20.50;59.80;;;;;;5034806;28;20029;-71
2022/04/23 04:37:41;;;;;;;19.10;13.10;;;20.40;59.80;;;;;;5034420;28;20068;-71
2022/04/23 04:40:07;;;;;;;19.52;13.45;;;20.40;59.80;;;;;;5034268;28;20073;-71
2022/04/23 04:42:33;;;;;;;18.33;12.60;;;20.40;59.90;;;;;;5049845;28;20025;-71
2022/04/23 04:44:59;;;;;;;15.10;11.60;;;20.40;59.90;;;;;;5034162;28;20037;-71
2022/04/23 04:47:24;;;;;;;18.92;12.30;;;20.40;60.00;;;;;;5033304;28;20478;-70
2022/04/23 04:49:50;;;;;;;19.52;12.77;;;20.40;60.00;;;;;;5034209;28;20472;-70
2022/04/23 04:52:15;;;;;;;19.00;12.25;;;20.30;60.00;;;;;;5034134;28;20030;-70
2022/04/23 04:54:41;;;;;;;18.50;12.27;;;20.30;60.00;;;;;;5034461;28;20030;-70
2022/04/23 04:57:07;;;;;;;17.33;12.25;;;20.30;60.00;;;;;;5033954;28;20026;-71
2022/04/23 04:59:32;;;;;;;20.60;12.02;;;20.30;60.00;;;;;;5034081;28;20033;-70
2022/04/23 05:01:59;;;;;;;15.20;11.77;;;20.30;60.10;;;;;;5033609;28;20037;-70
2022/04/23 05:04:25;;;;;;;18.58;12.75;;;20.30;60.10;;;;;;5033962;28;20115;-70
2022/04/23 05:06:50;;;;;;;17.55;12.35;;;20.30;60.20;;;;;;5032819;28;20495;-70
2022/04/23 05:09:16;;;;;;;17.70;12.45;;;20.30;60.20;;;;;;5034141;28;20029;-71
2022/04/23 05:11:42;;;;;;;19.02;13.05;;;20.30;60.20;;;;;;5033712;28;20028;-70
2022/04/23 05:14:07;;;;;;;17.30;11.85;;;20.30;60.20;;;;;;5032219;28;20026;-71
2022/04/23 05:16:34;;;;;;;17.73;11.98;;;20.20;60.20;;;;;;5030555;28;20059;-71
2022/04/23 05:18:59;;;;;;;16.98;11.43;;;20.30;60.30;;;;;;5022584;28;20033;-71
2022/04/23 05:21:25;;;;;;;18.00;11.80;;;20.30;60.40;;;;;;5013046;28;20018;-71
2022/04/23 05:23:51;;;;;;;17.23;12.27;;;20.30;60.50;;;;;;5014266;28;20456;-71
2022/04/23 05:26:16;;;;;;;19.17;12.63;;;20.20;60.40;;;;;;5015437;28;20501;-71
2022/04/23 05:28:42;;;;;;;15.52;11.18;;;20.20;60.50;;;;;;5021092;28;20443;-71
2022/04/23 05:31:08;;;;;;;18.75;10.88;;;20.20;60.50;;;;;;5013573;28;20080;-71
2022/04/23 05:33:35;;;;;;;13.13;9.50;;;20.20;60.50;;;;;;5013903;28;20029;-70
2022/04/23 05:36:01;;;;;;;11.10;7.93;;;20.20;60.10;;;;;;5013546;28;20020;-71
2022/04/23 05:38:27;;;;;;;10.50;7.40;;;20.10;59.90;;;;;;5013369;28;20021;-71
2022/04/23 05:40:52;;;;;;;11.55;8.15;;;20.10;60.00;;;;;;5013609;28;20520;-71
2022/04/23 05:43:18;;;;;;;10.77;7.63;;;20.00;59.90;;;;;;5013093;28;20057;-71
2022/04/23 05:45:44;;;;;;;12.40;8.60;;;19.90;59.90;;;;;;5012941;28;20084;-71
2022/04/23 05:48:09;;;;;;;13.98;8.65;;;19.90;59.90;;;;;;5011769;28;20033;-71
2022/04/23 05:50:35;;;;;;;12.02;8.05;;;19.90;60.00;;;;;;5011560;28;20026;-70
2022/04/23 05:53:01;;;;;;;11.75;8.15;;;19.90;59.90;;;;;;5012897;28;20030;-70
2022/04/23 05:55:27;;;;;;;11.55;8.55;;;19.90;59.90;;;;;;5012853;28;20443;-71
2022/04/23 05:57:52;;;;;;;12.00;7.72;;;19.80;59.80;;;;;;5012433;28;20103;-71
2022/04/23 06:00:18;;;;;;;13.20;8.35;;;19.80;59.80;;;;;;5012637;28;20026;-70
2022/04/23 06:02:44;;;;;;;11.00;7.60;;;19.80;59.80;;;;;;5011526;28;20032;-70
2022/04/23 06:05:10;;;;;;;10.13;7.32;;;19.80;59.80;;;;;;5012557;28;20033;-71
2022/04/23 06:07:36;;;;;;;9.98;6.97;;;19.80;59.80;;;;;;5011424;28;20030;-71
2022/04/23 06:10:02;;;;;;;10.57;7.63;;;19.70;59.80;;;;;;5019755;28;20029;-71
2022/04/23 06:12:28;;;;;;;11.18;7.32;;;19.70;59.80;;;;;;5020316;28;20583;-71
2022/04/23 06:14:53;;;;;;;13.13;8.27;;;19.70;59.80;;;;;;5030703;28;20021;-71
2022/04/23 06:17:26;;;;;;;12.73;7.80;;;19.70;59.80;;;;;;5031152;28;20033;-71
2022/04/23 06:19:52;;;;;;;;;;;19.70;59.70;;;;;;5014057;28;20403;-71
2022/04/23 06:22:19;;;;;;;8.88;6.55;;;19.70;59.70;;;;;;5031065;28;19904;-71
2022/04/23 06:24:45;;;;;;;11.68;7.50;;;19.60;60.00;;;;;;5030038;28;20053;-71
2022/04/23 06:27:10;;;;;;;9.70;7.10;;;19.60;59.90;;;;;;5029872;28;20106;-71
2022/04/23 06:29:36;;;;;;;10.88;7.28;;;19.60;59.90;;;;;;5032361;28;20053;-71
2022/04/23 06:32:03;;;;;;;10.40;6.90;;;19.60;59.90;;;;;;5031889;28;20128;-71
2022/04/23 06:34:28;;;;;;;10.95;6.47;;;19.60;59.90;;;;;;5031854;28;20510;-71
2022/04/23 06:36:54;;;;;;;11.68;7.15;;;19.50;59.80;;;;;;5032371;28;20057;-71
2022/04/23 06:39:20;;;;;;;12.77;7.28;;;19.50;59.80;;;;;;5032325;28;20045;-71
2022/04/23 06:41:45;;;;;;;10.00;6.75;;;19.50;59.80;;;;;;5032322;28;20022;-71
2022/04/23 06:44:11;;;;;;;10.07;6.57;;;19.50;59.70;;;;;;5032086;28;20070;-71
2022/04/23 06:46:37;;;;;;;8.82;6.63;;;19.50;59.80;;;;;;5032447;28;20148;-71
2022/04/23 06:49:05;;;;;;;11.00;7.20;;;19.50;59.80;;;;;;5032286;28;20032;-71
2022/04/23 06:51:31;;;;;;;12.27;7.00;;;19.50;59.80;;;;;;5031128;28;20395;-71
2022/04/23 06:53:57;;;;;;;9.80;7.07;;;19.50;59.80;;;;;;5032177;28;20021;-71
2022/04/23 06:56:23;;;;;;;11.18;6.90;;;19.50;59.80;;;;;;5032028;28;20025;-71
2022/04/23 06:58:48;;;;;;;9.75;6.85;;;19.40;59.70;;;;;;5031242;28;20065;-71
2022/04/23 07:01:15;;;;;;;8.52;6.32;;;19.50;59.80;;;;;;5030939;28;20071;-71
2022/04/23 07:03:41;;;;;;;11.02;6.55;;;19.40;59.80;;;;;;5031115;28;20104;-71
2022/04/23 07:06:06;;;;;;;9.30;6.18;;;19.40;59.80;;;;;;5030704;28;20471;-71
2022/04/23 07:08:32;;;;;;;7.90;6.10;;;19.40;59.80;;;;;;5032149;28;20034;-71
2022/04/23 07:10:58;;;;;;;9.00;6.15;;;19.40;59.80;;;;;;5032138;28;20022;-71
2022/04/23 07:13:23;;;;;;;13.07;5.93;;;19.40;59.80;;;;;;5030675;28;20041;-71
2022/04/23 07:15:49;;;;;;;8.90;5.88;;;19.40;59.80;;;;;;5030847;28;20108;-71
2022/04/23 07:18:15;;;;;;;10.82;5.82;;;19.40;59.80;;;;;;5031832;28;20033;-71
2022/04/23 07:20:41;;;;;;;8.82;6.07;;;19.30;59.70;;;;;;5032123;28;20026;-71
2022/04/23 07:25:51;;;;;;;8.48;5.45;;;19.30;59.80;;;;;;5035915;28;20052;-71
2022/04/23 07:28:18;;;;;;;9.02;6.35;;;19.30;59.80;;;;;;5034529;28;20018;-71
2022/04/23 07:30:44;;;;;;;8.77;5.78;;;19.30;59.80;;;;;;5034745;28;20025;-71
2022/04/23 07:37:28;;;;;;;8.63;5.70;;;19.30;59.80;;;;;;5035690;28;20036;-71
2022/04/23 07:38:39;;;;;;;6.20;5.22;;;19.20;59.80;;;;;;5035613;28;20083;-71
2022/04/23 07:41:05;;;;;;;9.35;5.90;;;19.20;59.80;;;;;;5035596;28;20029;-71
2022/04/23 07:43:31;;;;;;;12.70;6.13;;;19.20;59.90;;;;;;5035809;28;20034;-71
2022/04/23 07:45:57;;;;;;;9.38;5.80;;;19.20;59.80;;;;;;5035551;28;20037;-71
2022/04/23 07:48:22;;;;;;;9.55;5.68;;;19.20;59.90;;;;;;5034258;28;20147;-71
2022/04/23 07:50:48;;;;;;;8.13;5.40;;;19.20;59.80;;;;;;5034446;28;20068;-71
2022/04/23 07:53:13;;;;;;;8.15;5.32;;;19.20;59.80;;;;;;5035255;28;20036;-71
2022/04/23 07:55:40;;;;;;;7.55;5.47;;;19.20;59.80;;;;;;5035675;28;20029;-71
2022/04/23 07:58:06;;;;;;;9.13;5.82;;;19.20;59.90;;;;;;5035446;28;20049;-71
2022/04/23 08:00:32;;;;;;;9.15;5.82;;;19.20;59.80;;;;;;5035247;28;20061;-71
2022/04/23 08:02:58;;;;;;;7.00;5.05;;;19.10;59.80;;;;;;5034358;28;20476;-71
2022/04/23 08:05:24;;;;;;;7.85;5.15;;;19.20;59.80;;;;;;5034099;28;20033;-71
2022/04/23 08:07:50;;;;;;;9.02;5.32;;;19.10;59.80;;;;;;5033818;28;20450;-71
2022/04/23 08:10:16;;;;;;;8.95;5.88;;;19.10;59.80;;;;;;5033780;28;20052;-71
2022/04/23 08:12:41;;;;;;;9.55;5.60;;;19.10;59.90;;;;;;5034069;28;20049;-71
2022/04/23 08:15:08;;;;;;;7.53;5.18;;;19.10;59.80;;;;;;5034954;28;20029;-71
2022/04/23 08:17:34;;;;;;;8.57;5.63;;;19.10;59.80;;;;;;5034991;28;20029;-71
2022/04/23 08:19:59;;;;;;;6.50;4.75;;;19.10;59.80;;;;;;5017424;28;20025;-71
2022/04/23 08:22:25;;;;;;;6.75;5.30;;;19.10;59.80;;;;;;5016964;28;20029;-71
2022/04/23 08:24:51;;;;;;;7.13;5.18;;;19.10;59.80;;;;;;5033675;28;20104;-71
2022/04/23 08:27:17;;;;;;;8.32;5.25;;;19.10;59.80;;;;;;5033508;28;20025;-71
2022/04/23 08:32:26;;;;;;;7.38;5.03;;;19.10;59.80;;;;;;5034652;28;20032;-71
2022/04/23 08:34:53;;;;;;;6.82;5.00;;;19.00;59.80;;;;;;5034070;28;20029;-71
2022/04/23 08:37:19;;;;;;;7.53;4.93;;;19.00;59.90;;;;;;5034580;28;20105;-71
2022/04/23 08:39:47;;;;;;;9.05;5.20;;;19.10;59.90;;;;;;5033184;28;20132;-71
2022/04/23 08:42:12;;;;;;;8.93;5.10;;;19.10;59.90;;;;;;5034400;28;20036;-71
2022/04/23 08:44:38;;;;;;;7.82;5.38;;;19.00;59.90;;;;;;5039755;28;20041;-72
2022/04/23 08:47:04;;;;;;;5.63;4.32;;;19.00;59.90;;;;;;5047614;28;20056;-71
2022/04/23 08:49:33;;;;;;;6.90;4.75;;;19.00;59.90;;;;;;5034598;28;20052;-71
2022/04/23 08:52:29;;;;;;;8.52;5.20;;;19.00;59.90;;;;;;5037662;28;20009;-71
2022/04/23 08:54:54;;;;;;;7.05;4.70;;;19.10;59.80;;;;;;5033007;28;20026;-71
2022/04/23 08:57:20;;;;;;;6.65;4.72;;;19.00;59.90;;;;;;5033545;28;20052;-70
2022/04/23 08:59:51;;;;;;;6.55;4.75;;;19.00;59.90;;;;;;5032769;28;20025;-71
2022/04/23 09:02:18;;;;;;;8.10;4.70;;;19.00;60.00;;;;;;5032920;28;20031;-71
2022/04/23 09:04:45;;;;;;;6.93;4.55;;;18.90;60.00;;;;;;5032886;28;20061;-71
2022/04/23 09:07:21;;;;;;;6.80;4.80;;;18.90;60.20;;;;;;5033184;28;20013;-71
2022/04/23 09:09:51;;;;;;;6.60;4.75;;;19.00;59.90;;;;;;5033230;28;20075;-71
2022/04/23 09:12:17;;;;;;;7.95;4.75;;;18.90;60.00;;;;;;5033203;28;20053;-71
2022/04/23 09:14:45;;;;;;;6.15;4.95;;;18.90;60.00;;;;;;5033175;28;20084;-71
2022/04/23 09:25:44;;;;;;;27.15;16.35;;;19.00;60.60;;;;;;5032858;28;20076;-71
2022/04/23 09:28:17;;;;;;;31.15;19.13;;;19.00;60.70;;;;;;5032590;28;20492;-73
2022/04/23 09:30:43;;;;;;;34.10;20.05;;;19.00;60.80;;;;;;5034005;28;20547;-73
2022/04/23 09:33:10;;;;;;;34.50;20.55;;;19.00;61.00;;;;;;5032741;28;20108;-73
2022/04/23 09:35:35;;;;;;;38.60;22.08;;;19.00;60.90;;;;;;5033849;28;20030;-73
2022/04/23 09:38:18;;;;;;;38.72;21.67;;;19.00;61.00;;;;;;5049369;28;20095;-71
2022/04/23 09:40:53;;;;;;;34.90;20.40;;;19.10;61.30;;;;;;5015790;28;20451;-70
2022/04/23 09:43:29;;;;;;;32.50;20.67;;;19.10;61.20;;;;;;5033962;28;20029;-70
2022/04/23 09:46:08;;;;;;;37.85;20.33;;;19.10;61.20;;;;;;5032387;28;20053;-71
2022/04/23 09:48:34;;;;;;;33.38;19.95;;;19.10;61.30;;;;;;5048198;28;20368;-70
2022/04/23 09:51:01;;;;;;;35.78;20.70;;;19.00;61.10;;;;;;5033755;28;20022;-70
2022/04/23 09:53:29;;;;;;;33.80;20.50;;;19.00;61.20;;;;;;5031851;28;20491;-70
2022/04/23 09:55:59;;;;;;;33.17;20.52;;;19.00;61.20;;;;;;5032676;28;20037;-70
2022/04/23 09:58:29;;;;;;;34.50;20.17;;;19.00;61.30;;;;;;5048217;28;20041;-70
2022/04/23 10:00:57;;;;;;;35.97;20.27;;;19.00;61.20;;;;;;5032095;28;20021;-70
2022/04/23 10:03:32;;;;;;;32.75;19.45;;;19.00;61.40;;;;;;5031780;28;20068;-71
2022/04/23 10:05:59;;;;;;;31.48;18.63;;;19.00;61.50;;;;;;5032196;28;20025;-71
2022/04/23 10:08:26;;;;;;;32.42;18.95;;;19.00;61.40;;;;;;5032962;28;20104;-70
2022/04/23 10:11:13;;;;;;;35.83;19.80;;;19.00;61.50;;;;;;5032167;28;20025;-70
2022/04/23 10:13:40;;;;;;;30.08;18.70;;;19.00;61.70;;;;;;5029169;28;20022;-70
2022/04/23 10:16:06;;;;;;;32.05;19.35;;;18.90;61.50;;;;;;5012452;28;20512;-70
2022/04/23 10:18:38;;;;;;;33.35;19.60;;;18.90;61.50;;;;;;5011832;28;20026;-70
2022/04/23 10:21:08;;;;;;;29.17;19.17;;;19.00;61.60;;;;;;5025863;28;20025;-70
2022/04/23 10:23:42;;;;;;;33.42;19.70;;;18.90;61.60;;;;;;5033059;28;20034;-71
2022/04/23 10:26:26;;;;;;;28.40;17.95;;;19.00;61.60;;;;;;5032045;28;20025;-71
2022/04/23 10:28:51;;;;;;;30.60;18.80;;;19.00;61.60;;;;;;5031943;28;20040;-72
2022/04/23 10:31:17;;;;;;;28.58;18.65;;;18.90;61.60;;;;;;5031894;28;20468;-71
2022/04/23 10:33:46;;;;;;;31.48;18.60;;;18.90;61.60;;;;;;5032719;28;20030;-71
2022/04/23 10:36:13;;;;;;;30.65;18.45;;;18.90;61.60;;;;;;5031951;28;20033;-71
2022/04/23 10:38:40;;;;;;;30.20;19.08;;;18.90;61.60;;;;;;5031608;28;20463;-71
2022/04/23 10:41:06;;;;;;;29.77;18.70;;;18.90;61.60;;;;;;5031816;28;20072;-71
2022/04/23 10:43:31;;;;;;;31.25;18.52;;;18.90;61.60;;;;;;5033083;28;20033;-70
2022/04/23 10:45:59;;;;;;;31.55;18.73;;;18.90;61.60;;;;;;5031650;28;20369;-70
2022/04/23 10:48:25;;;;;;;29.55;17.42;;;18.90;61.70;;;;;;5031551;28;20095;-71
2022/04/23 10:51:01;;;;;;;26.88;16.73;;;18.90;61.70;;;;;;5031905;28;20067;-71
2022/04/23 10:53:47;;;;;;;28.73;17.58;;;18.90;61.70;;;;;;5031562;28;20080;-71
2022/04/23 10:56:14;;;;;;;26.40;17.52;;;18.90;61.70;;;;;;5032501;28;20133;-71
2022/04/23 10:58:41;;;;;;;28.23;17.80;;;18.90;61.80;;;;;;5030979;28;20029;-71
2022/04/23 11:01:26;;;;;;;30.15;17.25;;;18.80;61.70;;;;;;5031568;28;20395;-70
2022/04/23 11:04:01;;;;;;;28.08;17.00;;;18.90;61.70;;;;;;5048488;28;20550;-71
2022/04/23 11:12:19;;;;;;;24.77;16.10;;;18.90;61.80;;;;;;5032675;28;20103;-71
2022/04/23 11:14:46;;;;;;;27.52;16.35;;;18.80;61.90;;;;;;5031237;28;20357;-71
2022/04/23 11:17:14;;;;;;;26.25;16.52;;;18.80;61.90;;;;;;5032545;28;20112;-71
2022/04/23 11:19:41;;;;;;;25.65;16.83;;;18.80;61.90;;;;;;5014592;28;20124;-71
2022/04/23 11:22:09;;;;;;;25.55;16.10;;;18.80;61.90;;;;;;5032620;28;20030;-70
2022/04/23 11:24:35;;;;;;;23.75;15.35;;;18.80;61.90;;;;;;5031311;28;20040;-71
2022/04/23 11:27:01;;;;;;;25.42;15.57;;;18.80;61.90;;;;;;5015099;28;20026;-71
2022/04/23 11:29:27;;;;;;;26.92;16.00;;;18.80;61.90;;;;;;5031394;28;20037;-71
2022/04/23 11:31:54;;;;;;;28.17;16.17;;;18.80;61.80;;;;;;5030804;28;20020;-71
2022/04/23 11:34:20;;;;;;;23.33;14.80;;;18.80;61.80;;;;;;5031176;28;20037;-70
2022/04/23 11:36:45;;;;;;;22.45;14.95;;;18.80;61.80;;;;;;5030908;28;20021;-70
2022/04/23 11:39:13;;;;;;;24.75;14.88;;;18.80;61.80;;;;;;5023803;28;20092;-70
2022/04/23 11:41:51;;;;;;;23.20;14.07;;;18.80;61.90;;;;;;5018785;28;20373;-70
2022/04/23 11:47:09;;;;;;;23.38;13.65;;;18.80;61.90;;;;;;5030137;28;20177;-70
2022/04/23 11:49:35;;;;;;;22.15;13.35;;;18.70;61.90;;;;;;5030212;28;20022;-69
2022/04/23 11:52:08;;;;;;;21.40;13.45;;;18.80;61.90;;;;;;5031502;28;20104;-69
2022/04/23 11:54:40;;;;;;;;;;;18.80;61.90;;;;;;5030641;28;20045;-70
2022/04/23 11:57:10;;;;;;;18.15;11.70;;;18.70;62.00;;;;;;5031429;28;19905;-70
2022/04/23 11:59:41;;;;;;;18.30;12.40;;;18.70;62.10;;;;;;5030759;28;20104;-70
2022/04/23 12:02:17;;;;;;;20.55;13.02;;;18.70;62.10;;;;;;5030349;28;20032;-70
2022/04/23 12:04:44;;;;;;;19.33;12.15;;;18.70;62.00;;;;;;5030309;28;20095;-70
2022/04/23 12:07:11;;;;;;;17.77;11.80;;;18.70;62.00;;;;;;5029887;28;20435;-70
2022/04/23 12:09:47;;;;;;;21.35;12.80;;;18.70;62.00;;;;;;5029929;28;20466;-71
2022/04/23 12:12:29;;;;;;;19.90;12.38;;;18.80;62.00;;;;;;5033598;28;20053;-70
2022/04/23 12:14:56;;;;;;;21.80;12.27;;;18.70;62.00;;;;;;5034357;28;20036;-70
2022/04/23 12:17:27;;;;;;;18.88;11.80;;;18.70;62.00;;;;;;5049997;28;20260;-70
2022/04/23 12:19:54;;;;;;;17.27;10.75;;;18.70;62.00;;;;;;5033025;28;20080;-70
2022/04/23 12:22:26;;;;;;;17.33;11.70;;;18.70;62.10;;;;;;5033245;28;20018;-70
2022/04/23 12:25:10;;;;;;;16.63;11.77;;;18.70;62.00;;;;;;5034713;28;20099;-70
2022/04/23 12:27:57;;;;;;;20.25;11.82;;;18.80;62.00;;;;;;5032928;28;20029;-70
2022/04/23 12:41:36;;;;;;;18.65;11.20;;;18.70;62.10;;;;;;5034075;28;20044;-71
2022/04/23 12:44:19;;;;;;;14.27;10.65;;;18.70;62.10;;;;;;5029086;28;20021;-71
2022/04/23 12:47:04;;;;;;;14.95;10.90;;;18.70;62.00;;;;;;5021960;28;20033;-71
2022/04/23 12:49:50;;;;;;;14.52;10.85;;;18.70;62.00;;;;;;5032937;28;20033;-71
2022/04/23 12:52:20;;;;;;;16.83;11.00;;;18.70;62.10;;;;;;5033016;28;20411;-72
2022/04/23 12:55:14;;;;;;;14.95;10.25;;;18.70;62.20;;;;;;5032930;28;20480;-71
2022/04/23 12:57:49;;;;;;;15.60;10.35;;;18.70;62.10;;;;;;5045094;28;20100;-71
2022/04/23 13:00:20;;;;;;;14.95;10.05;;;18.70;62.10;;;;;;5053368;28;20063;-72
2022/04/23 13:02:49;;;;;;;13.50;9.40;;;18.70;62.10;;;;;;5052981;28;20049;-71
2022/04/23 13:05:15;;;;;;;13.10;9.32;;;18.70;62.10;;;;;;5052191;28;20174;-71
2022/04/23 13:10:25;;;;;;;16.80;10.45;;;18.70;62.10;;;;;;5052927;28;20028;-71
2022/04/23 13:12:50;;;;;;;16.40;10.05;;;18.70;62.10;;;;;;5039433;28;20025;-71
2022/04/23 13:15:16;;;;;;;14.13;11.05;;;18.70;62.10;;;;;;5032875;28;20048;-71